sensor_id;sensor_type;location;lat;lon;timestamp;P1;durP1;ratioP1;P2;durP2;ratioP2
33491;SDS011;20010;51.488;7.232;2023-03-03T00:01:39;89.57;;;39.63;;
33491;SDS011;20010;51.488;7.232;2023-03-03T00:04:06;91.63;;;44.25;;
33491;SDS011;20010;51.488;7.232;2023-03-03T00:06:38;84.80;;;43.13;;
33491;SDS011;20010;51.488;7.232;2023-03-03T00:09:04;84.53;;;43.67;;
33491;SDS011;20010;51.488;7.232;2023-03-03T00:11:31;92.93;;;44.05;;
33491;SDS011;20010;51.488;7.232;2023-03-03T00:13:58;96.25;;;44.30;;
33491;SDS011;20010;51.488;7.232;2023-03-03T00:19:01;83.30;;;40.75;;
33491;SDS011;20010;51.488;7.232;2023-03-03T00:21:29;82.80;;;41.80;;
33491;SDS011;20010;51.488;7.232;2023-03-03T00:26:33;86.00;;;43.10;;
33491;SDS011;20010;51.488;7.232;2023-03-03T00:29:02;89.80;;;43.15;;
33491;SDS011;20010;51.488;7.232;2023-03-03T00:31:54;82.95;;;41.60;;
33491;SDS011;20010;51.488;7.232;2023-03-03T00:34:24;81.25;;;40.58;;
33491;SDS011;20010;51.488;7.232;2023-03-03T00:36:53;78.82;;;39.80;;
33491;SDS011;20010;51.488;7.232;2023-03-03T00:39:30;78.55;;;37.63;;
33491;SDS011;20010;51.488;7.232;2023-03-03T00:42:04;79.53;;;40.83;;
33491;SDS011;20010;51.488;7.232;2023-03-03T00:44:42;85.20;;;42.47;;
33491;SDS011;20010;51.488;7.232;2023-03-03T00:47:12;83.97;;;39.90;;
33491;SDS011;20010;51.488;7.232;2023-03-03T00:49:44;84.18;;;43.15;;
33491;SDS011;20010;51.488;7.232;2023-03-03T00:52:16;84.25;;;41.28;;
33491;SDS011;20010;51.488;7.232;2023-03-03T00:54:43;82.47;;;40.47;;
33491;SDS011;20010;51.488;7.232;2023-03-03T00:57:10;84.40;;;39.55;;
33491;SDS011;20010;51.488;7.232;2023-03-03T00:59:38;83.15;;;40.95;;
33491;SDS011;20010;51.488;7.232;2023-03-03T01:02:05;77.80;;;39.75;;
33491;SDS011;20010;51.488;7.232;2023-03-03T01:04:31;84.30;;;39.33;;
33491;SDS011;20010;51.488;7.232;2023-03-03T01:06:58;80.55;;;38.38;;
33491;SDS011;20010;51.488;7.232;2023-03-03T01:09:24;86.20;;;38.85;;
33491;SDS011;20010;51.488;7.232;2023-03-03T01:11:51;80.40;;;41.97;;
33491;SDS011;20010;51.488;7.232;2023-03-03T01:14:17;96.78;;;43.10;;
33491;SDS011;20010;51.488;7.232;2023-03-03T01:16:44;96.13;;;42.58;;
33491;SDS011;20010;51.488;7.232;2023-03-03T01:19:11;99.60;;;44.50;;
33491;SDS011;20010;51.488;7.232;2023-03-03T01:21:37;97.07;;;43.70;;
33491;SDS011;20010;51.488;7.232;2023-03-03T01:24:05;99.10;;;45.30;;
33491;SDS011;20010;51.488;7.232;2023-03-03T01:26:31;99.38;;;43.30;;
33491;SDS011;20010;51.488;7.232;2023-03-03T01:28:58;86.05;;;39.08;;
33491;SDS011;20010;51.488;7.232;2023-03-03T01:31:24;87.18;;;38.83;;
33491;SDS011;20010;51.488;7.232;2023-03-03T01:33:51;85.72;;;39.42;;
33491;SDS011;20010;51.488;7.232;2023-03-03T01:36:24;92.97;;;38.38;;
33491;SDS011;20010;51.488;7.232;2023-03-03T01:38:52;80.72;;;35.72;;
33491;SDS011;20010;51.488;7.232;2023-03-03T01:41:18;88.00;;;37.85;;
33491;SDS011;20010;51.488;7.232;2023-03-03T01:43:46;88.95;;;39.25;;
33491;SDS011;20010;51.488;7.232;2023-03-03T01:46:21;86.03;;;39.38;;
33491;SDS011;20010;51.488;7.232;2023-03-03T01:49:04;90.63;;;40.97;;
33491;SDS011;20010;51.488;7.232;2023-03-03T01:51:53;86.63;;;40.13;;
33491;SDS011;20010;51.488;7.232;2023-03-03T01:54:29;86.25;;;41.30;;
33491;SDS011;20010;51.488;7.232;2023-03-03T01:57:00;85.95;;;40.53;;
33491;SDS011;20010;51.488;7.232;2023-03-03T01:59:30;97.07;;;44.33;;
33491;SDS011;20010;51.488;7.232;2023-03-03T02:04:26;92.60;;;41.75;;
33491;SDS011;20010;51.488;7.232;2023-03-03T02:07:02;98.15;;;41.78;;
33491;SDS011;20010;51.488;7.232;2023-03-03T02:12:19;86.30;;;39.03;;
33491;SDS011;20010;51.488;7.232;2023-03-03T02:14:51;83.32;;;38.55;;
33491;SDS011;20010;51.488;7.232;2023-03-03T02:17:18;91.15;;;40.53;;
33491;SDS011;20010;51.488;7.232;2023-03-03T02:19:51;80.15;;;38.55;;
33491;SDS011;20010;51.488;7.232;2023-03-03T02:22:43;93.53;;;44.15;;
33491;SDS011;20010;51.488;7.232;2023-03-03T02:25:17;88.03;;;42.50;;
33491;SDS011;20010;51.488;7.232;2023-03-03T02:27:51;80.97;;;39.15;;
33491;SDS011;20010;51.488;7.232;2023-03-03T02:30:19;86.20;;;38.40;;
33491;SDS011;20010;51.488;7.232;2023-03-03T02:32:47;79.13;;;39.80;;
33491;SDS011;20010;51.488;7.232;2023-03-03T02:35:47;86.90;;;40.25;;
33491;SDS011;20010;51.488;7.232;2023-03-03T02:43:27;88.93;;;40.58;;
33491;SDS011;20010;51.488;7.232;2023-03-03T02:45:59;89.18;;;40.33;;
33491;SDS011;20010;51.488;7.232;2023-03-03T02:48:26;100.93;;;44.40;;
33491;SDS011;20010;51.488;7.232;2023-03-03T02:50:53;103.90;;;45.42;;
33491;SDS011;20010;51.488;7.232;2023-03-03T02:53:19;102.75;;;43.88;;
33491;SDS011;20010;51.488;7.232;2023-03-03T02:55:46;104.18;;;44.88;;
33491;SDS011;20010;51.488;7.232;2023-03-03T02:58:12;116.63;;;46.03;;
33491;SDS011;20010;51.488;7.232;2023-03-03T03:00:39;110.50;;;44.30;;
33491;SDS011;20010;51.488;7.232;2023-03-03T03:03:05;106.22;;;46.00;;
33491;SDS011;20010;51.488;7.232;2023-03-03T03:05:32;108.15;;;45.70;;
33491;SDS011;20010;51.488;7.232;2023-03-03T03:07:59;115.60;;;46.75;;
33491;SDS011;20010;51.488;7.232;2023-03-03T03:10:25;106.07;;;43.08;;
33491;SDS011;20010;51.488;7.232;2023-03-03T03:12:52;108.97;;;46.33;;
33491;SDS011;20010;51.488;7.232;2023-03-03T03:15:18;113.90;;;45.03;;
33491;SDS011;20010;51.488;7.232;2023-03-03T03:17:45;100.30;;;44.30;;
33491;SDS011;20010;51.488;7.232;2023-03-03T03:20:13;110.07;;;44.40;;
33491;SDS011;20010;51.488;7.232;2023-03-03T03:22:39;113.60;;;45.58;;
33491;SDS011;20010;51.488;7.232;2023-03-03T03:25:06;111.22;;;45.13;;
33491;SDS011;20010;51.488;7.232;2023-03-03T03:27:33;111.88;;;42.90;;
33491;SDS011;20010;51.488;7.232;2023-03-03T03:29:59;105.35;;;42.50;;
33491;SDS011;20010;51.488;7.232;2023-03-03T03:32:26;100.13;;;43.13;;
33491;SDS011;20010;51.488;7.232;2023-03-03T03:34:53;94.60;;;40.28;;
33491;SDS011;20010;51.488;7.232;2023-03-03T03:37:19;77.68;;;35.33;;
33491;SDS011;20010;51.488;7.232;2023-03-03T03:39:46;66.75;;;30.65;;
33491;SDS011;20010;51.488;7.232;2023-03-03T03:42:13;75.53;;;32.45;;
33491;SDS011;20010;51.488;7.232;2023-03-03T03:44:39;70.53;;;30.20;;
33491;SDS011;20010;51.488;7.232;2023-03-03T03:47:06;71.68;;;31.05;;
33491;SDS011;20010;51.488;7.232;2023-03-03T03:49:32;74.22;;;30.42;;
33491;SDS011;20010;51.488;7.232;2023-03-03T03:51:59;78.07;;;34.45;;
33491;SDS011;20010;51.488;7.232;2023-03-03T03:54:25;78.80;;;31.13;;
33491;SDS011;20010;51.488;7.232;2023-03-03T03:56:52;75.32;;;32.90;;
33491;SDS011;20010;51.488;7.232;2023-03-03T03:59:19;79.35;;;32.45;;
33491;SDS011;20010;51.488;7.232;2023-03-03T04:01:46;66.07;;;27.92;;
33491;SDS011;20010;51.488;7.232;2023-03-03T04:04:15;58.05;;;25.77;;
33491;SDS011;20010;51.488;7.232;2023-03-03T04:06:42;63.85;;;28.15;;
33491;SDS011;20010;51.488;7.232;2023-03-03T04:09:09;61.58;;;25.30;;
33491;SDS011;20010;51.488;7.232;2023-03-03T04:11:36;59.67;;;25.92;;
33491;SDS011;20010;51.488;7.232;2023-03-03T04:14:02;63.08;;;27.25;;
33491;SDS011;20010;51.488;7.232;2023-03-03T04:16:29;62.65;;;26.25;;
33491;SDS011;20010;51.488;7.232;2023-03-03T04:18:56;56.90;;;25.85;;
33491;SDS011;20010;51.488;7.232;2023-03-03T04:21:23;48.85;;;24.25;;
33491;SDS011;20010;51.488;7.232;2023-03-03T04:23:50;51.13;;;21.17;;
33491;SDS011;20010;51.488;7.232;2023-03-03T04:26:18;52.13;;;22.85;;
33491;SDS011;20010;51.488;7.232;2023-03-03T04:28:45;48.70;;;24.30;;
33491;SDS011;20010;51.488;7.232;2023-03-03T04:31:11;45.92;;;23.52;;
33491;SDS011;20010;51.488;7.232;2023-03-03T04:33:38;46.45;;;23.20;;
33491;SDS011;20010;51.488;7.232;2023-03-03T04:36:05;47.22;;;22.00;;
33491;SDS011;20010;51.488;7.232;2023-03-03T04:38:31;50.20;;;21.83;;
33491;SDS011;20010;51.488;7.232;2023-03-03T04:40:58;56.47;;;23.13;;
33491;SDS011;20010;51.488;7.232;2023-03-03T04:43:24;47.65;;;22.95;;
33491;SDS011;20010;51.488;7.232;2023-03-03T04:45:51;43.70;;;19.90;;
33491;SDS011;20010;51.488;7.232;2023-03-03T04:48:17;45.45;;;22.40;;
33491;SDS011;20010;51.488;7.232;2023-03-03T04:50:44;38.88;;;19.42;;
33491;SDS011;20010;51.488;7.232;2023-03-03T04:53:11;37.67;;;19.73;;
33491;SDS011;20010;51.488;7.232;2023-03-03T04:55:37;43.28;;;19.98;;
33491;SDS011;20010;51.488;7.232;2023-03-03T04:58:04;39.75;;;18.83;;
33491;SDS011;20010;51.488;7.232;2023-03-03T05:00:31;42.20;;;19.73;;
33491;SDS011;20010;51.488;7.232;2023-03-03T05:02:58;37.50;;;18.55;;
33491;SDS011;20010;51.488;7.232;2023-03-03T05:07:58;48.25;;;23.45;;
33491;SDS011;20010;51.488;7.232;2023-03-03T05:10:24;53.80;;;23.30;;
33491;SDS011;20010;51.488;7.232;2023-03-03T05:12:51;60.35;;;26.77;;
33491;SDS011;20010;51.488;7.232;2023-03-03T05:15:17;59.10;;;26.10;;
33491;SDS011;20010;51.488;7.232;2023-03-03T05:17:44;56.45;;;25.10;;
33491;SDS011;20010;51.488;7.232;2023-03-03T05:20:11;58.65;;;25.70;;
33491;SDS011;20010;51.488;7.232;2023-03-03T05:22:39;67.53;;;25.48;;
33491;SDS011;20010;51.488;7.232;2023-03-03T05:25:05;54.00;;;25.48;;
33491;SDS011;20010;51.488;7.232;2023-03-03T05:27:32;61.20;;;24.92;;
33491;SDS011;20010;51.488;7.232;2023-03-03T05:29:59;63.13;;;26.92;;
33491;SDS011;20010;51.488;7.232;2023-03-03T05:32:26;58.45;;;24.55;;
33491;SDS011;20010;51.488;7.232;2023-03-03T05:34:52;62.95;;;24.17;;
33491;SDS011;20010;51.488;7.232;2023-03-03T05:37:19;59.95;;;25.45;;
33491;SDS011;20010;51.488;7.232;2023-03-03T05:39:45;64.95;;;28.88;;
33491;SDS011;20010;51.488;7.232;2023-03-03T05:42:12;60.83;;;27.13;;
33491;SDS011;20010;51.488;7.232;2023-03-03T05:44:40;67.35;;;28.23;;
33491;SDS011;20010;51.488;7.232;2023-03-03T05:47:06;69.78;;;29.25;;
33491;SDS011;20010;51.488;7.232;2023-03-03T05:49:33;68.45;;;27.13;;
33491;SDS011;20010;51.488;7.232;2023-03-03T05:52:00;65.85;;;27.38;;
33491;SDS011;20010;51.488;7.232;2023-03-03T05:54:26;65.00;;;27.95;;
33491;SDS011;20010;51.488;7.232;2023-03-03T05:56:53;83.47;;;32.95;;
33491;SDS011;20010;51.488;7.232;2023-03-03T05:59:19;85.18;;;36.35;;
33491;SDS011;20010;51.488;7.232;2023-03-03T06:01:46;81.82;;;34.83;;
33491;SDS011;20010;51.488;7.232;2023-03-03T06:04:13;95.53;;;37.53;;
33491;SDS011;20010;51.488;7.232;2023-03-03T06:06:39;91.85;;;35.25;;
33491;SDS011;20010;51.488;7.232;2023-03-03T06:09:06;81.93;;;33.00;;
33491;SDS011;20010;51.488;7.232;2023-03-03T06:11:33;89.32;;;34.55;;
33491;SDS011;20010;51.488;7.232;2023-03-03T06:13:59;95.68;;;35.47;;
33491;SDS011;20010;51.488;7.232;2023-03-03T06:16:26;91.18;;;38.10;;
33491;SDS011;20010;51.488;7.232;2023-03-03T06:18:52;89.65;;;35.15;;
33491;SDS011;20010;51.488;7.232;2023-03-03T06:21:19;92.65;;;33.35;;
33491;SDS011;20010;51.488;7.232;2023-03-03T06:23:46;87.03;;;34.22;;
33491;SDS011;20010;51.488;7.232;2023-03-03T06:26:13;86.35;;;33.92;;
33491;SDS011;20010;51.488;7.232;2023-03-03T06:28:39;78.72;;;30.52;;
33491;SDS011;20010;51.488;7.232;2023-03-03T06:31:06;74.03;;;32.38;;
33491;SDS011;20010;51.488;7.232;2023-03-03T06:33:33;79.03;;;31.63;;
33491;SDS011;20010;51.488;7.232;2023-03-03T06:35:59;72.35;;;30.88;;
33491;SDS011;20010;51.488;7.232;2023-03-03T06:38:26;70.18;;;31.55;;
33491;SDS011;20010;51.488;7.232;2023-03-03T06:40:53;80.10;;;32.72;;
33491;SDS011;20010;51.488;7.232;2023-03-03T06:43:19;72.75;;;31.02;;
33491;SDS011;20010;51.488;7.232;2023-03-03T06:45:46;66.70;;;29.52;;
33491;SDS011;20010;51.488;7.232;2023-03-03T06:48:18;74.25;;;31.67;;
33491;SDS011;20010;51.488;7.232;2023-03-03T06:50:45;74.60;;;31.38;;
33491;SDS011;20010;51.488;7.232;2023-03-03T06:53:14;75.28;;;32.28;;
33491;SDS011;20010;51.488;7.232;2023-03-03T06:55:41;68.70;;;31.35;;
33491;SDS011;20010;51.488;7.232;2023-03-03T06:58:14;70.20;;;29.90;;
33491;SDS011;20010;51.488;7.232;2023-03-03T07:00:48;64.63;;;28.00;;
33491;SDS011;20010;51.488;7.232;2023-03-03T07:03:28;65.03;;;27.92;;
33491;SDS011;20010;51.488;7.232;2023-03-03T07:05:59;70.30;;;28.40;;
33491;SDS011;20010;51.488;7.232;2023-03-03T07:08:28;63.80;;;29.30;;
33491;SDS011;20010;51.488;7.232;2023-03-03T07:10:56;73.53;;;29.05;;
33491;SDS011;20010;51.488;7.232;2023-03-03T07:13:27;67.75;;;29.17;;
33491;SDS011;20010;51.488;7.232;2023-03-03T07:15:55;74.63;;;30.13;;
33491;SDS011;20010;51.488;7.232;2023-03-03T07:18:36;61.78;;;27.58;;
33491;SDS011;20010;51.488;7.232;2023-03-03T07:21:16;72.25;;;30.77;;
33491;SDS011;20010;51.488;7.232;2023-03-03T07:23:46;78.70;;;30.65;;
33491;SDS011;20010;51.488;7.232;2023-03-03T07:26:15;81.93;;;32.40;;
33491;SDS011;20010;51.488;7.232;2023-03-03T07:29:12;78.57;;;31.83;;
33491;SDS011;20010;51.488;7.232;2023-03-03T07:31:41;78.00;;;29.98;;
33491;SDS011;20010;51.488;7.232;2023-03-03T07:36:57;71.43;;;30.35;;
33491;SDS011;20010;51.488;7.232;2023-03-03T07:41:51;66.65;;;29.90;;
33491;SDS011;20010;51.488;7.232;2023-03-03T07:44:21;86.93;;;33.78;;
33491;SDS011;20010;51.488;7.232;2023-03-03T07:46:53;84.10;;;34.25;;
33491;SDS011;20010;51.488;7.232;2023-03-03T07:49:21;86.75;;;32.05;;
33491;SDS011;20010;51.488;7.232;2023-03-03T07:51:51;83.95;;;33.45;;
33491;SDS011;20010;51.488;7.232;2023-03-03T07:56:58;82.47;;;32.88;;
33491;SDS011;20010;51.488;7.232;2023-03-03T07:59:31;80.25;;;32.67;;
33491;SDS011;20010;51.488;7.232;2023-03-03T08:02:00;80.32;;;33.00;;
33491;SDS011;20010;51.488;7.232;2023-03-03T08:04:28;79.55;;;33.13;;
33491;SDS011;20010;51.488;7.232;2023-03-03T08:07:01;76.95;;;31.92;;
33491;SDS011;20010;51.488;7.232;2023-03-03T08:14:36;76.68;;;31.58;;
33491;SDS011;20010;51.488;7.232;2023-03-03T08:17:12;77.72;;;30.95;;
33491;SDS011;20010;51.488;7.232;2023-03-03T08:19:40;71.30;;;28.90;;
33491;SDS011;20010;51.488;7.232;2023-03-03T08:22:14;67.53;;;27.83;;
33491;SDS011;20010;51.488;7.232;2023-03-03T08:24:42;73.07;;;28.92;;
33491;SDS011;20010;51.488;7.232;2023-03-03T08:27:09;73.13;;;29.45;;
33491;SDS011;20010;51.488;7.232;2023-03-03T08:29:35;68.10;;;28.42;;
33491;SDS011;20010;51.488;7.232;2023-03-03T08:32:02;73.80;;;30.27;;
33491;SDS011;20010;51.488;7.232;2023-03-03T08:34:29;74.07;;;30.73;;
33491;SDS011;20010;51.488;7.232;2023-03-03T08:36:55;74.15;;;30.73;;
33491;SDS011;20010;51.488;7.232;2023-03-03T08:39:23;74.50;;;31.13;;
33491;SDS011;20010;51.488;7.232;2023-03-03T08:41:50;79.70;;;32.45;;
33491;SDS011;20010;51.488;7.232;2023-03-03T08:44:16;82.25;;;31.95;;
33491;SDS011;20010;51.488;7.232;2023-03-03T08:46:44;81.55;;;31.58;;
33491;SDS011;20010;51.488;7.232;2023-03-03T08:49:11;81.38;;;31.08;;
33491;SDS011;20010;51.488;7.232;2023-03-03T08:51:38;82.75;;;32.17;;
33491;SDS011;20010;51.488;7.232;2023-03-03T08:54:05;83.15;;;31.98;;
33491;SDS011;20010;51.488;7.232;2023-03-03T08:56:32;81.07;;;35.25;;
33491;SDS011;20010;51.488;7.232;2023-03-03T08:58:58;72.85;;;28.67;;
33491;SDS011;20010;51.488;7.232;2023-03-03T09:01:28;78.97;;;30.63;;
33491;SDS011;20010;51.488;7.232;2023-03-03T09:03:58;78.23;;;30.90;;
33491;SDS011;20010;51.488;7.232;2023-03-03T09:06:24;69.28;;;29.08;;
33491;SDS011;20010;51.488;7.232;2023-03-03T09:08:51;73.80;;;28.95;;
33491;SDS011;20010;51.488;7.232;2023-03-03T09:11:24;75.85;;;28.63;;
33491;SDS011;20010;51.488;7.232;2023-03-03T09:14:06;67.47;;;28.20;;
33491;SDS011;20010;51.488;7.232;2023-03-03T09:16:37;56.58;;;23.08;;
33491;SDS011;20010;51.488;7.232;2023-03-03T09:19:17;65.95;;;25.85;;
33491;SDS011;20010;51.488;7.232;2023-03-03T09:21:55;47.83;;;21.70;;
33491;SDS011;20010;51.488;7.232;2023-03-03T09:24:28;54.97;;;23.67;;
33491;SDS011;20010;51.488;7.232;2023-03-03T09:26:56;50.47;;;20.65;;
33491;SDS011;20010;51.488;7.232;2023-03-03T09:29:28;55.03;;;22.27;;
33491;SDS011;20010;51.488;7.232;2023-03-03T09:34:37;55.88;;;22.58;;
33491;SDS011;20010;51.488;7.232;2023-03-03T09:40:17;61.03;;;23.00;;
33491;SDS011;20010;51.488;7.232;2023-03-03T09:43:14;46.45;;;20.80;;
33491;SDS011;20010;51.488;7.232;2023-03-03T09:51:07;46.83;;;20.58;;
33491;SDS011;20010;51.488;7.232;2023-03-03T09:56:41;56.10;;;21.70;;
33491;SDS011;20010;51.488;7.232;2023-03-03T10:12:43;45.60;;;20.90;;
33491;SDS011;20010;51.488;7.232;2023-03-03T10:18:29;44.55;;;18.20;;
33491;SDS011;20010;51.488;7.232;2023-03-03T10:26:53;51.10;;;22.67;;
33491;SDS011;20010;51.488;7.232;2023-03-03T10:46:50;43.97;;;19.33;;
33491;SDS011;20010;51.488;7.232;2023-03-03T11:20:10;52.17;;;24.42;;
33491;SDS011;20010;51.488;7.232;2023-03-03T11:23:11;57.63;;;23.08;;
33491;SDS011;20010;51.488;7.232;2023-03-03T11:28:24;48.08;;;20.35;;
33491;SDS011;20010;51.488;7.232;2023-03-03T11:31:16;43.47;;;20.02;;
33491;SDS011;20010;51.488;7.232;2023-03-03T11:37:06;56.00;;;23.35;;
33491;SDS011;20010;51.488;7.232;2023-03-03T11:39:34;63.67;;;25.90;;
33491;SDS011;20010;51.488;7.232;2023-03-03T11:42:18;64.18;;;28.17;;
33491;SDS011;20010;51.488;7.232;2023-03-03T11:44:50;66.22;;;27.42;;
33491;SDS011;20010;51.488;7.232;2023-03-03T11:47:28;69.82;;;30.10;;
33491;SDS011;20010;51.488;7.232;2023-03-03T11:50:10;75.47;;;31.27;;
33491;SDS011;20010;51.488;7.232;2023-03-03T11:52:53;70.40;;;30.23;;
33491;SDS011;20010;51.488;7.232;2023-03-03T11:55:37;63.20;;;27.15;;
33491;SDS011;20010;51.488;7.232;2023-03-03T11:58:39;63.30;;;28.38;;
33491;SDS011;20010;51.488;7.232;2023-03-03T12:01:09;67.07;;;26.38;;
33491;SDS011;20010;51.488;7.232;2023-03-03T12:04:00;67.95;;;29.98;;
33491;SDS011;20010;51.488;7.232;2023-03-03T12:11:42;62.00;;;27.33;;
33491;SDS011;20010;51.488;7.232;2023-03-03T12:17:13;61.55;;;27.13;;
33491;SDS011;20010;51.488;7.232;2023-03-03T12:22:38;58.97;;;27.70;;
33491;SDS011;20010;51.488;7.232;2023-03-03T12:25:51;66.95;;;27.25;;
33491;SDS011;20010;51.488;7.232;2023-03-03T12:28:44;58.35;;;26.00;;
33491;SDS011;20010;51.488;7.232;2023-03-03T12:32:39;61.42;;;29.00;;
33491;SDS011;20010;51.488;7.232;2023-03-03T12:34:45;58.60;;;29.10;;
33491;SDS011;20010;51.488;7.232;2023-03-03T12:37:20;57.35;;;29.20;;
33491;SDS011;20010;51.488;7.232;2023-03-03T13:01:51;56.85;;;24.48;;
33491;SDS011;20010;51.488;7.232;2023-03-03T13:06:57;51.25;;;25.40;;
33491;SDS011;20010;51.488;7.232;2023-03-03T13:15:02;36.45;;;19.73;;
33491;SDS011;20010;51.488;7.232;2023-03-03T13:20:15;37.47;;;20.35;;
33491;SDS011;20010;51.488;7.232;2023-03-03T13:23:00;35.22;;;20.27;;
33491;SDS011;20010;51.488;7.232;2023-03-03T13:28:21;31.85;;;17.23;;
33491;SDS011;20010;51.488;7.232;2023-03-03T13:31:18;35.50;;;17.23;;
33491;SDS011;20010;51.488;7.232;2023-03-03T13:33:53;30.63;;;16.52;;
33491;SDS011;20010;51.488;7.232;2023-03-03T13:36:37;29.98;;;15.98;;
33491;SDS011;20010;51.488;7.232;2023-03-03T13:39:11;32.25;;;16.13;;
33491;SDS011;20010;51.488;7.232;2023-03-03T13:41:44;32.95;;;18.25;;
33491;SDS011;20010;51.488;7.232;2023-03-03T13:44:16;30.08;;;18.15;;
33491;SDS011;20010;51.488;7.232;2023-03-03T13:52:09;27.98;;;16.13;;
33491;SDS011;20010;51.488;7.232;2023-03-03T13:54:42;35.42;;;20.42;;
33491;SDS011;20010;51.488;7.232;2023-03-03T13:57:34;29.88;;;16.95;;
33491;SDS011;20010;51.488;7.232;2023-03-03T14:02:56;28.70;;;17.33;;
33491;SDS011;20010;51.488;7.232;2023-03-03T14:08:08;29.75;;;19.52;;
33491;SDS011;20010;51.488;7.232;2023-03-03T14:10:52;32.47;;;19.30;;
33491;SDS011;20010;51.488;7.232;2023-03-03T14:18:40;30.73;;;19.80;;
33491;SDS011;20010;51.488;7.232;2023-03-03T14:21:15;29.42;;;20.90;;
33491;SDS011;20010;51.488;7.232;2023-03-03T14:26:24;27.08;;;17.90;;
33491;SDS011;20010;51.488;7.232;2023-03-03T14:28:51;29.42;;;19.35;;
33491;SDS011;20010;51.488;7.232;2023-03-03T14:31:39;25.23;;;17.75;;
33491;SDS011;20010;51.488;7.232;2023-03-03T14:42:38;27.05;;;17.23;;
33491;SDS011;20010;51.488;7.232;2023-03-03T14:45:17;24.30;;;15.73;;
33491;SDS011;20010;51.488;7.232;2023-03-03T14:47:55;26.70;;;16.52;;
33491;SDS011;20010;51.488;7.232;2023-03-03T15:01:46;21.40;;;14.88;;
33491;SDS011;20010;51.488;7.232;2023-03-03T15:11:56;20.73;;;13.80;;
33491;SDS011;20010;51.488;7.232;2023-03-03T15:14:31;24.27;;;14.10;;
33491;SDS011;20010;51.488;7.232;2023-03-03T15:17:14;25.13;;;14.05;;
33491;SDS011;20010;51.488;7.232;2023-03-03T15:22:49;17.80;;;11.60;;
33491;SDS011;20010;51.488;7.232;2023-03-03T15:25:23;21.63;;;13.25;;
33491;SDS011;20010;51.488;7.232;2023-03-03T15:33:23;21.10;;;11.68;;
33491;SDS011;20010;51.488;7.232;2023-03-03T15:36:01;18.27;;;12.25;;
33491;SDS011;20010;51.488;7.232;2023-03-03T15:38:43;17.88;;;12.15;;
33491;SDS011;20010;51.488;7.232;2023-03-03T15:44:08;17.20;;;11.60;;
33491;SDS011;20010;51.488;7.232;2023-03-03T15:46:51;14.75;;;10.60;;
33491;SDS011;20010;51.488;7.232;2023-03-03T15:55:37;18.27;;;11.43;;
33491;SDS011;20010;51.488;7.232;2023-03-03T16:04:00;16.90;;;10.82;;
33491;SDS011;20010;51.488;7.232;2023-03-03T16:09:29;17.50;;;12.25;;
33491;SDS011;20010;51.488;7.232;2023-03-03T16:17:54;16.73;;;10.93;;
33491;SDS011;20010;51.488;7.232;2023-03-03T16:31:42;14.18;;;10.45;;
33491;SDS011;20010;51.488;7.232;2023-03-03T16:44:45;19.58;;;12.90;;
33491;SDS011;20010;51.488;7.232;2023-03-03T16:52:49;19.67;;;13.75;;
33491;SDS011;20010;51.488;7.232;2023-03-03T16:55:22;24.92;;;13.55;;
33491;SDS011;20010;51.488;7.232;2023-03-03T17:00:39;19.55;;;12.30;;
33491;SDS011;20010;51.488;7.232;2023-03-03T17:03:38;20.85;;;12.85;;
33491;SDS011;20010;51.488;7.232;2023-03-03T17:06:12;23.40;;;13.80;;
33491;SDS011;20010;51.488;7.232;2023-03-03T17:09:01;22.20;;;12.52;;
33491;SDS011;20010;51.488;7.232;2023-03-03T17:14:52;22.35;;;12.40;;
33491;SDS011;20010;51.488;7.232;2023-03-03T17:17:48;20.13;;;11.63;;
33491;SDS011;20010;51.488;7.232;2023-03-03T17:20:42;22.45;;;14.07;;
33491;SDS011;20010;51.488;7.232;2023-03-03T17:23:22;22.38;;;13.90;;
33491;SDS011;20010;51.488;7.232;2023-03-03T17:31:07;29.67;;;15.18;;
33491;SDS011;20010;51.488;7.232;2023-03-03T17:33:46;22.70;;;13.73;;
33491;SDS011;20010;51.488;7.232;2023-03-03T17:45:07;26.73;;;14.70;;
33491;SDS011;20010;51.488;7.232;2023-03-03T17:54:29;32.95;;;15.02;;
33491;SDS011;20010;51.488;7.232;2023-03-03T17:56:56;30.25;;;14.45;;
33491;SDS011;20010;51.488;7.232;2023-03-03T18:05:21;29.52;;;15.30;;
33491;SDS011;20010;51.488;7.232;2023-03-03T18:13:16;34.40;;;16.08;;
33491;SDS011;20010;51.488;7.232;2023-03-03T18:21:24;35.80;;;17.48;;
33491;SDS011;20010;51.488;7.232;2023-03-03T18:24:13;36.85;;;18.90;;
33491;SDS011;20010;51.488;7.232;2023-03-03T18:31:49;42.78;;;22.77;;
33491;SDS011;20010;51.488;7.232;2023-03-03T18:34:39;40.00;;;21.20;;
33491;SDS011;20010;51.488;7.232;2023-03-03T18:50:39;44.13;;;23.15;;
33491;SDS011;20010;51.488;7.232;2023-03-03T18:55:39;46.90;;;25.48;;
33491;SDS011;20010;51.488;7.232;2023-03-03T19:00:41;44.60;;;22.92;;
33491;SDS011;20010;51.488;7.232;2023-03-03T19:03:27;47.03;;;25.90;;
33491;SDS011;20010;51.488;7.232;2023-03-03T19:05:57;42.75;;;22.95;;
33491;SDS011;20010;51.488;7.232;2023-03-03T19:08:26;48.72;;;25.98;;
33491;SDS011;20010;51.488;7.232;2023-03-03T19:16:53;47.55;;;25.85;;
33491;SDS011;20010;51.488;7.232;2023-03-03T19:19:22;51.03;;;26.95;;
33491;SDS011;20010;51.488;7.232;2023-03-03T19:22:20;49.00;;;25.90;;
33491;SDS011;20010;51.488;7.232;2023-03-03T19:25:05;48.90;;;23.20;;
33491;SDS011;20010;51.488;7.232;2023-03-03T19:28:01;50.90;;;25.17;;
33491;SDS011;20010;51.488;7.232;2023-03-03T19:42:14;44.22;;;23.50;;
33491;SDS011;20010;51.488;7.232;2023-03-03T19:53:03;48.38;;;25.27;;
33491;SDS011;20010;51.488;7.232;2023-03-03T19:55:51;47.42;;;24.20;;
33491;SDS011;20010;51.488;7.232;2023-03-03T19:58:21;48.33;;;25.23;;
33491;SDS011;20010;51.488;7.232;2023-03-03T20:00:59;52.40;;;26.27;;
33491;SDS011;20010;51.488;7.232;2023-03-03T20:03:47;48.67;;;26.10;;
33491;SDS011;20010;51.488;7.232;2023-03-03T20:09:57;56.97;;;29.23;;
33491;SDS011;20010;51.488;7.232;2023-03-03T20:15:27;53.45;;;26.33;;
33491;SDS011;20010;51.488;7.232;2023-03-03T20:20:53;48.83;;;25.27;;
33491;SDS011;20010;51.488;7.232;2023-03-03T20:23:47;50.35;;;24.90;;
33491;SDS011;20010;51.488;7.232;2023-03-03T20:26:46;44.80;;;23.67;;
33491;SDS011;20010;51.488;7.232;2023-03-03T20:37:25;49.50;;;25.70;;
33491;SDS011;20010;51.488;7.232;2023-03-03T20:45:41;47.35;;;25.05;;
33491;SDS011;20010;51.488;7.232;2023-03-03T20:53:32;46.15;;;23.90;;
33491;SDS011;20010;51.488;7.232;2023-03-03T20:56:08;46.85;;;25.65;;
33491;SDS011;20010;51.488;7.232;2023-03-03T20:58:49;42.67;;;24.13;;
33491;SDS011;20010;51.488;7.232;2023-03-03T21:04:43;54.22;;;27.40;;
33491;SDS011;20010;51.488;7.232;2023-03-03T21:07:03;42.22;;;23.77;;
33491;SDS011;20010;51.488;7.232;2023-03-03T21:09:31;35.15;;;19.88;;
33491;SDS011;20010;51.488;7.232;2023-03-03T21:12:00;42.33;;;21.90;;
33491;SDS011;20010;51.488;7.232;2023-03-03T21:14:30;37.92;;;21.02;;
33491;SDS011;20010;51.488;7.232;2023-03-03T21:19:52;34.88;;;19.38;;
33491;SDS011;20010;51.488;7.232;2023-03-03T21:22:19;29.35;;;18.42;;
33491;SDS011;20010;51.488;7.232;2023-03-03T21:27:23;30.73;;;18.05;;
33491;SDS011;20010;51.488;7.232;2023-03-03T21:30:10;36.47;;;20.30;;
33491;SDS011;20010;51.488;7.232;2023-03-03T21:32:42;33.08;;;18.88;;
33491;SDS011;20010;51.488;7.232;2023-03-03T21:35:11;38.13;;;19.25;;